sensor_id;sensor_type;location;lat;lon;timestamp;temperature;humidity
36552;DHT22;22559;54.176;12.102;2022-08-01T00:02:29;18.10;99.90
36552;DHT22;22559;54.176;12.102;2022-08-01T00:04:56;18.10;99.90
36552;DHT22;22559;54.176;12.102;2022-08-01T00:07:22;18.20;99.90
36552;DHT22;22559;54.176;12.102;2022-08-01T00:09:48;18.20;99.90
36552;DHT22;22559;54.176;12.102;2022-08-01T00:12:14;18.20;99.90
36552;DHT22;22559;54.176;12.102;2022-08-01T00:14:39;18.20;99.90
36552;DHT22;22559;54.176;12.102;2022-08-01T00:17:05;18.20;99.90
36552;DHT22;22559;54.176;12.102;2022-08-01T00:19:31;18.20;99.90
36552;DHT22;22559;54.176;12.102;2022-08-01T00:21:57;18.20;99.90
36552;DHT22;22559;54.176;12.102;2022-08-01T00:24:23;18.30;99.90
36552;DHT22;22559;54.176;12.102;2022-08-01T00:26:48;18.30;99.90
36552;DHT22;22559;54.176;12.102;2022-08-01T00:29:14;18.50;99.90
36552;DHT22;22559;54.176;12.102;2022-08-01T00:31:40;18.60;99.90
36552;DHT22;22559;54.176;12.102;2022-08-01T00:34:05;18.60;99.90
36552;DHT22;22559;54.176;12.102;2022-08-01T00:36:31;18.60;99.90
36552;DHT22;22559;54.176;12.102;2022-08-01T00:38:56;18.60;99.90
36552;DHT22;22559;54.176;12.102;2022-08-01T00:41:22;18.60;99.90
36552;DHT22;22559;54.176;12.102;2022-08-01T00:43:49;18.70;99.90
36552;DHT22;22559;54.176;12.102;2022-08-01T00:46:14;18.80;99.90
36552;DHT22;22559;54.176;12.102;2022-08-01T00:48:40;18.70;99.90
36552;DHT22;22559;54.176;12.102;2022-08-01T00:51:07;18.80;99.90
36552;DHT22;22559;54.176;12.102;2022-08-01T00:53:33;18.70;99.90
36552;DHT22;22559;54.176;12.102;2022-08-01T00:55:59;18.80;99.90
36552;DHT22;22559;54.176;12.102;2022-08-01T00:58:25;18.80;99.90
36552;DHT22;22559;54.176;12.102;2022-08-01T01:00:54;18.80;99.90
36552;DHT22;22559;54.176;12.102;2022-08-01T01:03:20;18.80;99.90
36552;DHT22;22559;54.176;12.102;2022-08-01T01:06:13;18.80;99.90
36552;DHT22;22559;54.176;12.102;2022-08-01T01:08:45;18.80;99.90
36552;DHT22;22559;54.176;12.102;2022-08-01T01:11:26;18.80;99.90
36552;DHT22;22559;54.176;12.102;2022-08-01T01:13:58;18.80;99.90
36552;DHT22;22559;54.176;12.102;2022-08-01T01:16:26;18.70;99.90
36552;DHT22;22559;54.176;12.102;2022-08-01T01:18:57;18.60;99.90
36552;DHT22;22559;54.176;12.102;2022-08-01T01:31:51;18.40;99.90
36552;DHT22;22559;54.176;12.102;2022-08-01T01:34:22;18.40;99.90
36552;DHT22;22559;54.176;12.102;2022-08-01T01:36:50;18.40;99.90
36552;DHT22;22559;54.176;12.102;2022-08-01T01:39:17;18.40;99.90
36552;DHT22;22559;54.176;12.102;2022-08-01T01:41:44;18.40;99.90
36552;DHT22;22559;54.176;12.102;2022-08-01T01:44:10;18.40;99.90
36552;DHT22;22559;54.176;12.102;2022-08-01T01:46:36;18.40;99.90
36552;DHT22;22559;54.176;12.102;2022-08-01T01:49:03;18.30;99.90
36552;DHT22;22559;54.176;12.102;2022-08-01T01:51:30;18.30;99.90
36552;DHT22;22559;54.176;12.102;2022-08-01T01:53:57;18.30;99.90
36552;DHT22;22559;54.176;12.102;2022-08-01T01:56:24;18.30;99.90
36552;DHT22;22559;54.176;12.102;2022-08-01T01:58:53;18.20;99.90
36552;DHT22;22559;54.176;12.102;2022-08-01T02:01:22;18.30;99.90
36552;DHT22;22559;54.176;12.102;2022-08-01T02:03:51;18.20;99.90
36552;DHT22;22559;54.176;12.102;2022-08-01T02:06:20;18.20;99.90
36552;DHT22;22559;54.176;12.102;2022-08-01T02:08:47;18.30;99.90
36552;DHT22;22559;54.176;12.102;2022-08-01T02:11:13;18.30;99.90
36552;DHT22;22559;54.176;12.102;2022-08-01T02:14:06;18.30;99.90
36552;DHT22;22559;54.176;12.102;2022-08-01T02:16:35;18.40;99.90
36552;DHT22;22559;54.176;12.102;2022-08-01T02:19:03;18.40;99.90
36552;DHT22;22559;54.176;12.102;2022-08-01T02:21:44;18.40;99.90
36552;DHT22;22559;54.176;12.102;2022-08-01T02:24:15;18.40;99.90
36552;DHT22;22559;54.176;12.102;2022-08-01T02:26:47;18.30;99.90
36552;DHT22;22559;54.176;12.102;2022-08-01T02:29:19;18.30;99.90
36552;DHT22;22559;54.176;12.102;2022-08-01T02:31:47;18.30;99.90
36552;DHT22;22559;54.176;12.102;2022-08-01T02:34:16;18.20;99.90
36552;DHT22;22559;54.176;12.102;2022-08-01T02:36:44;18.20;99.90
36552;DHT22;22559;54.176;12.102;2022-08-01T02:39:13;18.30;99.90
36552;DHT22;22559;54.176;12.102;2022-08-01T02:41:45;18.40;99.90
36552;DHT22;22559;54.176;12.102;2022-08-01T02:44:17;18.30;99.90
36552;DHT22;22559;54.176;12.102;2022-08-01T02:47:00;18.40;99.90
36552;DHT22;22559;54.176;12.102;2022-08-01T02:49:33;18.40;99.90
36552;DHT22;22559;54.176;12.102;2022-08-01T02:52:07;18.40;99.90
36552;DHT22;22559;54.176;12.102;2022-08-01T02:54:35;18.40;99.90
36552;DHT22;22559;54.176;12.102;2022-08-01T02:57:02;18.50;99.90
36552;DHT22;22559;54.176;12.102;2022-08-01T02:59:30;18.60;99.90
36552;DHT22;22559;54.176;12.102;2022-08-01T03:01:58;18.60;99.90
36552;DHT22;22559;54.176;12.102;2022-08-01T03:04:26;18.50;99.90
36552;DHT22;22559;54.176;12.102;2022-08-01T03:06:56;18.50;99.90
36552;DHT22;22559;54.176;12.102;2022-08-01T03:09:27;18.50;99.90
36552;DHT22;22559;54.176;12.102;2022-08-01T03:11:58;18.40;99.90
36552;DHT22;22559;54.176;12.102;2022-08-01T03:14:25;18.40;99.90
36552;DHT22;22559;54.176;12.102;2022-08-01T03:16:52;18.40;99.90
36552;DHT22;22559;54.176;12.102;2022-08-01T03:19:18;18.40;99.90
36552;DHT22;22559;54.176;12.102;2022-08-01T03:21:47;18.40;99.90
36552;DHT22;22559;54.176;12.102;2022-08-01T03:24:14;18.40;99.90
36552;DHT22;22559;54.176;12.102;2022-08-01T03:26:41;18.40;99.90
36552;DHT22;22559;54.176;12.102;2022-08-01T03:29:10;18.50;99.90
36552;DHT22;22559;54.176;12.102;2022-08-01T03:31:38;18.60;99.90
36552;DHT22;22559;54.176;12.102;2022-08-01T03:34:08;18.60;99.90
36552;DHT22;22559;54.176;12.102;2022-08-01T03:36:36;18.60;99.90
36552;DHT22;22559;54.176;12.102;2022-08-01T03:39:09;18.60;99.90
36552;DHT22;22559;54.176;12.102;2022-08-01T03:41:40;18.70;99.90
36552;DHT22;22559;54.176;12.102;2022-08-01T03:44:15;18.70;99.90
36552;DHT22;22559;54.176;12.102;2022-08-01T03:46:52;18.80;99.90
36552;DHT22;22559;54.176;12.102;2022-08-01T03:49:23;18.80;99.90
36552;DHT22;22559;54.176;12.102;2022-08-01T03:51:51;18.90;99.90
36552;DHT22;22559;54.176;12.102;2022-08-01T03:54:21;18.90;99.90
36552;DHT22;22559;54.176;12.102;2022-08-01T03:56:50;18.90;99.90
36552;DHT22;22559;54.176;12.102;2022-08-01T03:59:17;18.90;99.90
36552;DHT22;22559;54.176;12.102;2022-08-01T04:01:44;18.90;99.90
36552;DHT22;22559;54.176;12.102;2022-08-01T04:04:10;18.90;99.90
36552;DHT22;22559;54.176;12.102;2022-08-01T04:06:40;18.90;99.90
36552;DHT22;22559;54.176;12.102;2022-08-01T04:09:09;18.90;99.90
36552;DHT22;22559;54.176;12.102;2022-08-01T04:11:36;18.90;99.90
36552;DHT22;22559;54.176;12.102;2022-08-01T04:14:02;18.70;99.90
36552;DHT22;22559;54.176;12.102;2022-08-01T04:16:27;18.70;99.90
36552;DHT22;22559;54.176;12.102;2022-08-01T04:18:53;18.70;99.90
36552;DHT22;22559;54.176;12.102;2022-08-01T04:21:23;18.60;99.90
36552;DHT22;22559;54.176;12.102;2022-08-01T04:23:49;18.60;99.90
36552;DHT22;22559;54.176;12.102;2022-08-01T04:26:18;18.50;99.90
36552;DHT22;22559;54.176;12.102;2022-08-01T04:28:46;18.50;99.90
36552;DHT22;22559;54.176;12.102;2022-08-01T04:31:16;18.50;99.90
36552;DHT22;22559;54.176;12.102;2022-08-01T04:33:45;18.40;99.90
36552;DHT22;22559;54.176;12.102;2022-08-01T04:36:12;18.40;99.90
36552;DHT22;22559;54.176;12.102;2022-08-01T04:38:40;18.50;99.90
36552;DHT22;22559;54.176;12.102;2022-08-01T04:41:10;18.40;99.90
36552;DHT22;22559;54.176;12.102;2022-08-01T04:43:38;18.40;99.90
36552;DHT22;22559;54.176;12.102;2022-08-01T04:46:05;18.50;99.90
36552;DHT22;22559;54.176;12.102;2022-08-01T04:48:33;18.50;99.90
36552;DHT22;22559;54.176;12.102;2022-08-01T04:51:00;18.50;99.90
36552;DHT22;22559;54.176;12.102;2022-08-01T04:53:26;18.50;99.90
36552;DHT22;22559;54.176;12.102;2022-08-01T04:55:52;18.50;99.90
36552;DHT22;22559;54.176;12.102;2022-08-01T04:58:17;18.50;99.90
36552;DHT22;22559;54.176;12.102;2022-08-01T05:00:43;18.60;99.90
36552;DHT22;22559;54.176;12.102;2022-08-01T05:03:09;18.60;99.90
36552;DHT22;22559;54.176;12.102;2022-08-01T05:05:34;18.60;99.90
36552;DHT22;22559;54.176;12.102;2022-08-01T05:08:00;18.60;99.90
36552;DHT22;22559;54.176;12.102;2022-08-01T05:10:27;18.60;99.90
36552;DHT22;22559;54.176;12.102;2022-08-01T05:12:53;18.60;99.90
36552;DHT22;22559;54.176;12.102;2022-08-01T05:15:19;18.60;99.90
36552;DHT22;22559;54.176;12.102;2022-08-01T05:17:44;18.70;99.90
36552;DHT22;22559;54.176;12.102;2022-08-01T05:20:11;18.70;99.90
36552;DHT22;22559;54.176;12.102;2022-08-01T05:22:37;18.70;99.90
36552;DHT22;22559;54.176;12.102;2022-08-01T05:25:03;18.70;99.90
36552;DHT22;22559;54.176;12.102;2022-08-01T05:27:30;18.70;99.90
36552;DHT22;22559;54.176;12.102;2022-08-01T05:29:56;18.80;99.90
36552;DHT22;22559;54.176;12.102;2022-08-01T05:32:22;18.90;99.90
36552;DHT22;22559;54.176;12.102;2022-08-01T05:34:47;18.90;99.90
36552;DHT22;22559;54.176;12.102;2022-08-01T05:37:13;19.00;99.90
36552;DHT22;22559;54.176;12.102;2022-08-01T05:39:38;19.00;99.90
36552;DHT22;22559;54.176;12.102;2022-08-01T05:42:04;19.00;99.90
36552;DHT22;22559;54.176;12.102;2022-08-01T05:44:30;19.00;99.90
36552;DHT22;22559;54.176;12.102;2022-08-01T05:46:55;19.00;99.90
36552;DHT22;22559;54.176;12.102;2022-08-01T05:49:21;19.00;99.90
36552;DHT22;22559;54.176;12.102;2022-08-01T05:51:46;19.00;99.90
36552;DHT22;22559;54.176;12.102;2022-08-01T05:54:12;19.00;99.90
36552;DHT22;22559;54.176;12.102;2022-08-01T05:56:38;19.00;99.90
36552;DHT22;22559;54.176;12.102;2022-08-01T05:59:04;19.10;99.90
36552;DHT22;22559;54.176;12.102;2022-08-01T06:01:29;19.00;99.90
36552;DHT22;22559;54.176;12.102;2022-08-01T06:03:55;19.10;99.90
36552;DHT22;22559;54.176;12.102;2022-08-01T06:06:21;19.20;99.90
36552;DHT22;22559;54.176;12.102;2022-08-01T06:08:47;19.30;99.90
36552;DHT22;22559;54.176;12.102;2022-08-01T06:11:13;19.30;99.90
36552;DHT22;22559;54.176;12.102;2022-08-01T06:13:38;19.40;99.90
36552;DHT22;22559;54.176;12.102;2022-08-01T06:16:04;19.40;99.90
36552;DHT22;22559;54.176;12.102;2022-08-01T06:18:30;19.40;99.90
36552;DHT22;22559;54.176;12.102;2022-08-01T06:20:55;19.50;99.90
36552;DHT22;22559;54.176;12.102;2022-08-01T06:23:21;19.60;99.90
36552;DHT22;22559;54.176;12.102;2022-08-01T06:25:47;19.50;99.90
36552;DHT22;22559;54.176;12.102;2022-08-01T06:28:13;19.50;99.90
36552;DHT22;22559;54.176;12.102;2022-08-01T06:30:38;19.50;99.90
36552;DHT22;22559;54.176;12.102;2022-08-01T06:33:04;19.60;99.90
36552;DHT22;22559;54.176;12.102;2022-08-01T06:35:30;19.60;99.90
36552;DHT22;22559;54.176;12.102;2022-08-01T06:37:59;19.70;99.90
36552;DHT22;22559;54.176;12.102;2022-08-01T06:40:24;19.70;99.90
36552;DHT22;22559;54.176;12.102;2022-08-01T06:42:50;19.70;99.90
36552;DHT22;22559;54.176;12.102;2022-08-01T06:45:16;19.70;99.90
36552;DHT22;22559;54.176;12.102;2022-08-01T06:47:43;19.70;99.90
36552;DHT22;22559;54.176;12.102;2022-08-01T06:50:10;19.60;99.90
36552;DHT22;22559;54.176;12.102;2022-08-01T06:52:36;19.40;99.90
36552;DHT22;22559;54.176;12.102;2022-08-01T06:55:03;19.40;99.90
36552;DHT22;22559;54.176;12.102;2022-08-01T06:57:29;19.40;99.90
36552;DHT22;22559;54.176;12.102;2022-08-01T06:59:55;19.30;99.90
36552;DHT22;22559;54.176;12.102;2022-08-01T07:02:21;19.40;99.90
36552;DHT22;22559;54.176;12.102;2022-08-01T07:04:47;19.50;99.90
36552;DHT22;22559;54.176;12.102;2022-08-01T07:07:12;19.40;99.90
36552;DHT22;22559;54.176;12.102;2022-08-01T07:09:38;19.40;99.90
36552;DHT22;22559;54.176;12.102;2022-08-01T07:12:06;19.40;99.90
36552;DHT22;22559;54.176;12.102;2022-08-01T07:14:32;19.40;99.90
36552;DHT22;22559;54.176;12.102;2022-08-01T07:16:58;19.40;99.90
36552;DHT22;22559;54.176;12.102;2022-08-01T07:19:23;19.40;99.90
36552;DHT22;22559;54.176;12.102;2022-08-01T07:21:49;19.60;99.90
36552;DHT22;22559;54.176;12.102;2022-08-01T07:24:15;19.60;99.90
36552;DHT22;22559;54.176;12.102;2022-08-01T07:26:48;19.60;99.90
36552;DHT22;22559;54.176;12.102;2022-08-01T07:29:14;19.60;99.90
36552;DHT22;22559;54.176;12.102;2022-08-01T07:31:40;19.60;99.90
36552;DHT22;22559;54.176;12.102;2022-08-01T07:34:05;19.60;99.90
36552;DHT22;22559;54.176;12.102;2022-08-01T07:36:31;19.50;99.90
36552;DHT22;22559;54.176;12.102;2022-08-01T07:38:57;19.60;99.90
36552;DHT22;22559;54.176;12.102;2022-08-01T07:41:22;19.50;99.90
36552;DHT22;22559;54.176;12.102;2022-08-01T07:43:48;19.60;99.90
36552;DHT22;22559;54.176;12.102;2022-08-01T07:46:15;19.60;99.90
36552;DHT22;22559;54.176;12.102;2022-08-01T07:48:41;19.60;99.90
36552;DHT22;22559;54.176;12.102;2022-08-01T07:51:06;19.60;99.90
36552;DHT22;22559;54.176;12.102;2022-08-01T07:53:33;19.60;99.90
36552;DHT22;22559;54.176;12.102;2022-08-01T07:55:59;19.60;99.90
36552;DHT22;22559;54.176;12.102;2022-08-01T07:58:25;19.60;99.90
36552;DHT22;22559;54.176;12.102;2022-08-01T08:00:50;19.50;99.90
36552;DHT22;22559;54.176;12.102;2022-08-01T08:03:16;19.50;99.90
36552;DHT22;22559;54.176;12.102;2022-08-01T08:05:41;19.40;99.90
36552;DHT22;22559;54.176;12.102;2022-08-01T08:08:08;19.40;99.90
36552;DHT22;22559;54.176;12.102;2022-08-01T08:10:34;19.50;99.90
36552;DHT22;22559;54.176;12.102;2022-08-01T08:13:00;19.50;99.90
36552;DHT22;22559;54.176;12.102;2022-08-01T08:15:27;19.40;99.90
36552;DHT22;22559;54.176;12.102;2022-08-01T08:17:53;19.40;99.90
36552;DHT22;22559;54.176;12.102;2022-08-01T08:20:18;19.30;99.90
36552;DHT22;22559;54.176;12.102;2022-08-01T08:22:44;19.20;99.90
36552;DHT22;22559;54.176;12.102;2022-08-01T08:25:10;19.30;99.90
36552;DHT22;22559;54.176;12.102;2022-08-01T08:27:36;19.20;99.90
36552;DHT22;22559;54.176;12.102;2022-08-01T08:30:04;19.30;99.90
36552;DHT22;22559;54.176;12.102;2022-08-01T08:32:33;19.30;99.90
36552;DHT22;22559;54.176;12.102;2022-08-01T08:34:58;19.40;99.90
36552;DHT22;22559;54.176;12.102;2022-08-01T08:37:24;19.50;99.90
36552;DHT22;22559;54.176;12.102;2022-08-01T08:39:49;19.60;99.90
36552;DHT22;22559;54.176;12.102;2022-08-01T08:42:15;19.70;99.90
36552;DHT22;22559;54.176;12.102;2022-08-01T08:44:41;19.80;99.90
36552;DHT22;22559;54.176;12.102;2022-08-01T08:47:07;20.00;99.90
36552;DHT22;22559;54.176;12.102;2022-08-01T08:49:36;20.10;99.90
36552;DHT22;22559;54.176;12.102;2022-08-01T08:52:03;20.20;99.90
36552;DHT22;22559;54.176;12.102;2022-08-01T08:54:29;20.30;99.90
36552;DHT22;22559;54.176;12.102;2022-08-01T08:56:56;20.30;99.90
36552;DHT22;22559;54.176;12.102;2022-08-01T08:59:23;20.40;99.90
36552;DHT22;22559;54.176;12.102;2022-08-01T09:01:52;20.40;99.90
36552;DHT22;22559;54.176;12.102;2022-08-01T09:04:17;20.50;99.90
36552;DHT22;22559;54.176;12.102;2022-08-01T09:06:43;20.80;99.90
36552;DHT22;22559;54.176;12.102;2022-08-01T09:09:09;21.10;99.90
36552;DHT22;22559;54.176;12.102;2022-08-01T09:11:36;21.20;99.90
36552;DHT22;22559;54.176;12.102;2022-08-01T09:14:09;21.40;99.90
36552;DHT22;22559;54.176;12.102;2022-08-01T09:16:36;21.70;99.90
36552;DHT22;22559;54.176;12.102;2022-08-01T09:21:36;22.20;99.90
36552;DHT22;22559;54.176;12.102;2022-08-01T09:24:02;22.60;99.90
36552;DHT22;22559;54.176;12.102;2022-08-01T09:26:34;23.10;99.90
36552;DHT22;22559;54.176;12.102;2022-08-01T09:29:02;24.10;99.90
36552;DHT22;22559;54.176;12.102;2022-08-01T09:31:29;24.30;99.90
36552;DHT22;22559;54.176;12.102;2022-08-01T09:36:23;23.70;99.90
36552;DHT22;22559;54.176;12.102;2022-08-01T09:38:50;22.90;99.90
36552;DHT22;22559;54.176;12.102;2022-08-01T09:41:16;22.40;99.90
36552;DHT22;22559;54.176;12.102;2022-08-01T09:43:48;21.80;99.90
36552;DHT22;22559;54.176;12.102;2022-08-01T09:46:14;21.70;99.90
36552;DHT22;22559;54.176;12.102;2022-08-01T09:49:03;21.70;99.90
36552;DHT22;22559;54.176;12.102;2022-08-01T09:51:34;21.30;99.90
36552;DHT22;22559;54.176;12.102;2022-08-01T09:54:01;21.20;99.90
36552;DHT22;22559;54.176;12.102;2022-08-01T09:56:36;20.90;99.90
36552;DHT22;22559;54.176;12.102;2022-08-01T09:59:02;20.70;99.90
36552;DHT22;22559;54.176;12.102;2022-08-01T10:01:48;20.80;99.90
36552;DHT22;22559;54.176;12.102;2022-08-01T10:04:19;20.80;99.90
36552;DHT22;22559;54.176;12.102;2022-08-01T10:06:47;20.70;99.90
36552;DHT22;22559;54.176;12.102;2022-08-01T10:09:32;20.70;99.90
36552;DHT22;22559;54.176;12.102;2022-08-01T10:11:59;20.70;99.90
36552;DHT22;22559;54.176;12.102;2022-08-01T10:14:26;20.40;99.90
36552;DHT22;22559;54.176;12.102;2022-08-01T10:16:57;20.10;99.90
36552;DHT22;22559;54.176;12.102;2022-08-01T10:19:25;19.70;99.90
36552;DHT22;22559;54.176;12.102;2022-08-01T10:21:52;19.60;99.90
36552;DHT22;22559;54.176;12.102;2022-08-01T10:24:23;19.50;99.90
36552;DHT22;22559;54.176;12.102;2022-08-01T10:26:52;19.50;99.90
36552;DHT22;22559;54.176;12.102;2022-08-01T10:29:19;19.60;99.90
36552;DHT22;22559;54.176;12.102;2022-08-01T10:31:48;19.60;99.90
36552;DHT22;22559;54.176;12.102;2022-08-01T10:34:15;19.80;99.90
36552;DHT22;22559;54.176;12.102;2022-08-01T10:36:45;19.90;99.90
36552;DHT22;22559;54.176;12.102;2022-08-01T10:39:11;19.90;99.90
36552;DHT22;22559;54.176;12.102;2022-08-01T10:41:38;20.00;99.90
36552;DHT22;22559;54.176;12.102;2022-08-01T10:44:07;20.10;99.90
36552;DHT22;22559;54.176;12.102;2022-08-01T10:46:37;20.10;99.90
36552;DHT22;22559;54.176;12.102;2022-08-01T10:49:15;20.20;99.90
36552;DHT22;22559;54.176;12.102;2022-08-01T10:51:43;20.00;99.90
36552;DHT22;22559;54.176;12.102;2022-08-01T10:54:12;20.10;99.90
36552;DHT22;22559;54.176;12.102;2022-08-01T10:56:49;20.20;99.90
36552;DHT22;22559;54.176;12.102;2022-08-01T10:59:24;20.10;99.90
36552;DHT22;22559;54.176;12.102;2022-08-01T11:02:01;20.00;99.90
36552;DHT22;22559;54.176;12.102;2022-08-01T11:07:54;19.80;99.90
36552;DHT22;22559;54.176;12.102;2022-08-01T11:10:39;19.70;99.90
36552;DHT22;22559;54.176;12.102;2022-08-01T11:13:06;19.60;99.90
36552;DHT22;22559;54.176;12.102;2022-08-01T11:15:37;19.40;99.90
36552;DHT22;22559;54.176;12.102;2022-08-01T11:21:02;19.30;99.90
36552;DHT22;22559;54.176;12.102;2022-08-01T11:23:29;19.30;99.90
36552;DHT22;22559;54.176;12.102;2022-08-01T11:28:22;19.20;99.90
36552;DHT22;22559;54.176;12.102;2022-08-01T11:44:04;19.70;99.90
36552;DHT22;22559;54.176;12.102;2022-08-01T11:52:17;19.70;99.90
36552;DHT22;22559;54.176;12.102;2022-08-01T11:55:27;19.90;99.90
36552;DHT22;22559;54.176;12.102;2022-08-01T11:57:34;19.90;99.90
36552;DHT22;22559;54.176;12.102;2022-08-01T12:00:15;20.00;99.90
36552;DHT22;22559;54.176;12.102;2022-08-01T12:02:42;20.00;99.90
36552;DHT22;22559;54.176;12.102;2022-08-01T12:05:14;20.30;99.90
36552;DHT22;22559;54.176;12.102;2022-08-01T12:07:43;20.80;99.90
36552;DHT22;22559;54.176;12.102;2022-08-01T12:12:50;21.20;99.90
36552;DHT22;22559;54.176;12.102;2022-08-01T12:15:18;21.10;99.90
36552;DHT22;22559;54.176;12.102;2022-08-01T12:17:58;21.50;99.90
36552;DHT22;22559;54.176;12.102;2022-08-01T12:20:32;21.60;99.90
36552;DHT22;22559;54.176;12.102;2022-08-01T12:23:00;21.70;99.90
36552;DHT22;22559;54.176;12.102;2022-08-01T12:25:26;22.10;99.90
36552;DHT22;22559;54.176;12.102;2022-08-01T12:27:52;22.10;99.90
36552;DHT22;22559;54.176;12.102;2022-08-01T12:30:19;22.20;99.90
36552;DHT22;22559;54.176;12.102;2022-08-01T12:32:48;22.20;99.90
36552;DHT22;22559;54.176;12.102;2022-08-01T12:35:14;21.90;99.90
36552;DHT22;22559;54.176;12.102;2022-08-01T12:37:45;21.60;99.90
36552;DHT22;22559;54.176;12.102;2022-08-01T12:42:41;21.50;99.90
36552;DHT22;22559;54.176;12.102;2022-08-01T12:45:15;21.50;99.90
36552;DHT22;22559;54.176;12.102;2022-08-01T12:47:41;21.80;99.90
36552;DHT22;22559;54.176;12.102;2022-08-01T12:50:11;22.60;99.90
36552;DHT22;22559;54.176;12.102;2022-08-01T12:52:37;23.40;99.90
36552;DHT22;22559;54.176;12.102;2022-08-01T12:55:21;23.80;99.90
36552;DHT22;22559;54.176;12.102;2022-08-01T12:57:49;23.90;99.90
36552;DHT22;22559;54.176;12.102;2022-08-01T13:00:22;24.00;99.90
36552;DHT22;22559;54.176;12.102;2022-08-01T13:02:49;24.00;99.90
36552;DHT22;22559;54.176;12.102;2022-08-01T13:05:16;24.20;99.90
36552;DHT22;22559;54.176;12.102;2022-08-01T13:07:52;24.40;99.90
36552;DHT22;22559;54.176;12.102;2022-08-01T13:10:29;24.50;99.90
36552;DHT22;22559;54.176;12.102;2022-08-01T13:12:57;24.50;99.90
36552;DHT22;22559;54.176;12.102;2022-08-01T13:15:25;24.30;99.90
36552;DHT22;22559;54.176;12.102;2022-08-01T13:17:52;24.40;99.90
36552;DHT22;22559;54.176;12.102;2022-08-01T13:20:30;24.60;99.90
36552;DHT22;22559;54.176;12.102;2022-08-01T13:23:13;24.20;99.90
36552;DHT22;22559;54.176;12.102;2022-08-01T13:25:54;24.10;99.90
36552;DHT22;22559;54.176;12.102;2022-08-01T13:28:24;23.90;99.90
36552;DHT22;22559;54.176;12.102;2022-08-01T13:30:51;24.00;99.90
36552;DHT22;22559;54.176;12.102;2022-08-01T13:33:17;24.20;99.90
36552;DHT22;22559;54.176;12.102;2022-08-01T13:35:43;24.30;99.90
36552;DHT22;22559;54.176;12.102;2022-08-01T13:38:08;23.90;99.90
36552;DHT22;22559;54.176;12.102;2022-08-01T13:40:34;23.50;99.90
36552;DHT22;22559;54.176;12.102;2022-08-01T13:43:00;24.20;99.90
36552;DHT22;22559;54.176;12.102;2022-08-01T13:45:25;24.30;99.90
36552;DHT22;22559;54.176;12.102;2022-08-01T13:47:51;24.30;99.90
36552;DHT22;22559;54.176;12.102;2022-08-01T13:50:17;24.70;99.90
36552;DHT22;22559;54.176;12.102;2022-08-01T13:52:42;24.60;99.90
36552;DHT22;22559;54.176;12.102;2022-08-01T13:55:08;24.30;99.90
36552;DHT22;22559;54.176;12.102;2022-08-01T13:57:33;24.10;99.90
36552;DHT22;22559;54.176;12.102;2022-08-01T13:59:59;23.90;99.90
36552;DHT22;22559;54.176;12.102;2022-08-01T14:02:26;23.70;99.90
36552;DHT22;22559;54.176;12.102;2022-08-01T14:04:53;23.70;99.90
36552;DHT22;22559;54.176;12.102;2022-08-01T14:07:20;23.90;99.90
36552;DHT22;22559;54.176;12.102;2022-08-01T14:09:45;24.30;99.90
36552;DHT22;22559;54.176;12.102;2022-08-01T14:12:11;23.90;99.90
36552;DHT22;22559;54.176;12.102;2022-08-01T14:14:37;23.80;99.90
36552;DHT22;22559;54.176;12.102;2022-08-01T14:17:03;23.80;99.90
36552;DHT22;22559;54.176;12.102;2022-08-01T14:19:29;23.60;99.90
36552;DHT22;22559;54.176;12.102;2022-08-01T14:21:56;23.40;99.90
36552;DHT22;22559;54.176;12.102;2022-08-01T14:24:22;23.30;99.90
36552;DHT22;22559;54.176;12.102;2022-08-01T14:26:48;23.20;99.90
36552;DHT22;22559;54.176;12.102;2022-08-01T14:29:13;23.30;99.90
36552;DHT22;22559;54.176;12.102;2022-08-01T14:31:39;23.40;99.90
36552;DHT22;22559;54.176;12.102;2022-08-01T14:34:04;23.10;99.90
36552;DHT22;22559;54.176;12.102;2022-08-01T14:36:30;23.00;99.90
36552;DHT22;22559;54.176;12.102;2022-08-01T14:38:56;23.20;99.90
36552;DHT22;22559;54.176;12.102;2022-08-01T14:41:21;23.20;99.90
36552;DHT22;22559;54.176;12.102;2022-08-01T14:43:47;23.30;99.90
36552;DHT22;22559;54.176;12.102;2022-08-01T14:46:12;23.40;99.90
36552;DHT22;22559;54.176;12.102;2022-08-01T14:48:38;23.50;99.90
36552;DHT22;22559;54.176;12.102;2022-08-01T14:51:04;23.40;99.90
36552;DHT22;22559;54.176;12.102;2022-08-01T14:53:32;23.10;99.90
36552;DHT22;22559;54.176;12.102;2022-08-01T14:55:58;23.20;99.90
36552;DHT22;22559;54.176;12.102;2022-08-01T14:58:24;23.80;99.90
36552;DHT22;22559;54.176;12.102;2022-08-01T15:00:49;23.90;99.90
36552;DHT22;22559;54.176;12.102;2022-08-01T15:03:20;24.10;99.90
36552;DHT22;22559;54.176;12.102;2022-08-01T15:05:45;24.30;99.90
36552;DHT22;22559;54.176;12.102;2022-08-01T15:08:11;24.10;99.90
36552;DHT22;22559;54.176;12.102;2022-08-01T15:10:37;23.70;99.90
36552;DHT22;22559;54.176;12.102;2022-08-01T15:13:02;23.30;99.90
36552;DHT22;22559;54.176;12.102;2022-08-01T15:15:28;23.00;99.90
36552;DHT22;22559;54.176;12.102;2022-08-01T15:17:54;23.00;99.90
36552;DHT22;22559;54.176;12.102;2022-08-01T15:20:19;23.50;99.90
36552;DHT22;22559;54.176;12.102;2022-08-01T15:22:45;23.10;99.90
36552;DHT22;22559;54.176;12.102;2022-08-01T15:25:13;22.90;99.90
36552;DHT22;22559;54.176;12.102;2022-08-01T15:27:38;22.70;99.90
36552;DHT22;22559;54.176;12.102;2022-08-01T15:30:04;22.70;99.90
36552;DHT22;22559;54.176;12.102;2022-08-01T15:32:30;22.60;99.90
36552;DHT22;22559;54.176;12.102;2022-08-01T15:34:56;22.50;99.90
36552;DHT22;22559;54.176;12.102;2022-08-01T15:37:21;22.40;99.90
36552;DHT22;22559;54.176;12.102;2022-08-01T15:39:47;22.20;99.90
36552;DHT22;22559;54.176;12.102;2022-08-01T15:42:15;22.20;99.90
36552;DHT22;22559;54.176;12.102;2022-08-01T15:44:41;22.20;99.90
36552;DHT22;22559;54.176;12.102;2022-08-01T15:47:07;22.30;99.90
36552;DHT22;22559;54.176;12.102;2022-08-01T15:49:33;22.40;99.90
36552;DHT22;22559;54.176;12.102;2022-08-01T15:52:02;22.10;99.90
36552;DHT22;22559;54.176;12.102;2022-08-01T15:54:28;22.10;99.90
36552;DHT22;22559;54.176;12.102;2022-08-01T15:56:53;22.00;99.90
36552;DHT22;22559;54.176;12.102;2022-08-01T15:59:19;22.20;99.90
36552;DHT22;22559;54.176;12.102;2022-08-01T16:01:44;22.30;99.90
36552;DHT22;22559;54.176;12.102;2022-08-01T16:04:10;22.60;99.90
36552;DHT22;22559;54.176;12.102;2022-08-01T16:06:36;22.50;99.90
36552;DHT22;22559;54.176;12.102;2022-08-01T16:09:03;22.60;99.90